JAD weather

Perth Jandakot Airport
Perth, Western Australia, Australia

Public forecast

Using degrees Celsius for public forecast. Weather courtesy of forecast.io.

METAR (pilot weather report)

Retrieved 2017/10/19 06:30 UTC (0 seconds ago):

YPJT 190630Z AUTO 05012KT 040V130 9999 // NCD 24/04 Q1023 RF00.0/000.0

TAF (pilot weather forecast)

Forecast is more than 12 hours old.

Retrieved 2017/10/18 18:00 UTC (12 hours ago):

TAF YPJT 181631Z 1818/1912 13008KT CAVOK FM182300 09012KT CAVOK